sensor_id;sensor_type;location;lat;lon;timestamp;pressure;altitude;pressure_sealevel;temperature;humidity
28797;BME280;24974;54.444;18.560;2022-12-18T00:00:30;102725.97;;;1.64;59.91
28797;BME280;24974;54.444;18.560;2022-12-18T00:03:01;102728.81;;;1.50;59.90
28797;BME280;24974;54.444;18.560;2022-12-18T00:05:32;102738.03;;;1.96;58.52
28797;BME280;24974;54.444;18.560;2022-12-18T00:08:02;102739.44;;;1.45;59.85
28797;BME280;24974;54.444;18.560;2022-12-18T00:10:33;102750.59;;;1.35;59.09
28797;BME280;24974;54.444;18.560;2022-12-18T00:13:04;102743.03;;;2.00;57.75
28797;BME280;24974;54.444;18.560;2022-12-18T00:15:36;102747.22;;;1.95;58.55
28797;BME280;24974;54.444;18.560;2022-12-18T00:18:08;102736.88;;;1.36;59.61
28797;BME280;24974;54.444;18.560;2022-12-18T00:20:39;102738.81;;;1.49;60.05
28797;BME280;24974;54.444;18.560;2022-12-18T00:23:10;102737.72;;;1.44;59.42
28797;BME280;24974;54.444;18.560;2022-12-18T00:25:41;102740.81;;;1.68;58.79
28797;BME280;24974;54.444;18.560;2022-12-18T00:28:12;102747.84;;;1.28;60.33
28797;BME280;24974;54.444;18.560;2022-12-18T00:30:43;102749.97;;;1.33;59.87
28797;BME280;24974;54.444;18.560;2022-12-18T00:33:14;102753.22;;;1.22;60.25
28797;BME280;24974;54.444;18.560;2022-12-18T00:35:45;102745.66;;;0.89;61.06
28797;BME280;24974;54.444;18.560;2022-12-18T00:38:16;102744.22;;;1.49;59.33
28797;BME280;24974;54.444;18.560;2022-12-18T00:40:48;102752.09;;;1.44;59.52
28797;BME280;24974;54.444;18.560;2022-12-18T00:43:18;102758.03;;;0.98;60.54
28797;BME280;24974;54.444;18.560;2022-12-18T00:45:49;102758.22;;;0.97;60.71
28797;BME280;24974;54.444;18.560;2022-12-18T00:48:20;102761.09;;;0.95;61.40
28797;BME280;24974;54.444;18.560;2022-12-18T00:50:52;102763.56;;;0.69;62.04
28797;BME280;24974;54.444;18.560;2022-12-18T00:53:22;102754.59;;;1.39;59.60
28797;BME280;24974;54.444;18.560;2022-12-18T00:55:53;102761.22;;;0.80;61.12
28797;BME280;24974;54.444;18.560;2022-12-18T00:58:24;102768.34;;;0.67;61.45
28797;BME280;24974;54.444;18.560;2022-12-18T01:00:55;102767.00;;;1.27;60.26
28797;BME280;24974;54.444;18.560;2022-12-18T01:03:26;102771.41;;;0.42;63.42
28797;BME280;24974;54.444;18.560;2022-12-18T01:05:57;102767.50;;;0.66;62.25
28797;BME280;24974;54.444;18.560;2022-12-18T01:08:28;102769.69;;;0.77;61.85
28797;BME280;24974;54.444;18.560;2022-12-18T01:10:59;102783.06;;;0.43;61.97
28797;BME280;24974;54.444;18.560;2022-12-18T01:13:29;102787.72;;;0.49;62.84
28797;BME280;24974;54.444;18.560;2022-12-18T01:16:00;102778.63;;;0.35;63.10
28797;BME280;24974;54.444;18.560;2022-12-18T01:18:31;102779.03;;;0.53;62.83
28797;BME280;24974;54.444;18.560;2022-12-18T01:21:10;102783.38;;;1.19;61.79
28797;BME280;24974;54.444;18.560;2022-12-18T01:23:42;102791.91;;;1.16;61.71
28797;BME280;24974;54.444;18.560;2022-12-18T01:26:16;102782.63;;;1.03;61.54
28797;BME280;24974;54.444;18.560;2022-12-18T01:28:47;102791.22;;;0.86;62.17
28797;BME280;24974;54.444;18.560;2022-12-18T01:31:21;102791.50;;;0.91;61.65
28797;BME280;24974;54.444;18.560;2022-12-18T01:33:53;102800.66;;;0.53;62.13
28797;BME280;24974;54.444;18.560;2022-12-18T01:36:29;102795.22;;;0.68;62.58
28797;BME280;24974;54.444;18.560;2022-12-18T01:39:09;102798.44;;;1.00;61.89
28797;BME280;24974;54.444;18.560;2022-12-18T01:41:41;102801.59;;;1.03;61.12
28797;BME280;24974;54.444;18.560;2022-12-18T01:44:57;102795.72;;;1.00;62.77
28797;BME280;24974;54.444;18.560;2022-12-18T06:29:22;103009.09;;;1.62;54.62
28797;BME280;24974;54.444;18.560;2022-12-18T06:31:52;103021.50;;;1.35;55.66
28797;BME280;24974;54.444;18.560;2022-12-18T06:34:24;103019.03;;;1.55;55.14
28797;BME280;24974;54.444;18.560;2022-12-18T06:36:54;103025.91;;;2.00;54.61
28797;BME280;24974;54.444;18.560;2022-12-18T06:39:28;103031.03;;;1.88;54.42
28797;BME280;24974;54.444;18.560;2022-12-18T06:41:59;103044.00;;;1.72;54.87
28797;BME280;24974;54.444;18.560;2022-12-18T06:44:30;103048.13;;;1.46;54.92
28797;BME280;24974;54.444;18.560;2022-12-18T06:47:01;103036.66;;;1.87;54.13
28797;BME280;24974;54.444;18.560;2022-12-18T06:49:32;103050.66;;;1.33;55.29
28797;BME280;24974;54.444;18.560;2022-12-18T06:52:03;103048.78;;;1.70;55.19
28797;BME280;24974;54.444;18.560;2022-12-18T06:54:34;103055.28;;;1.03;56.43
28797;BME280;24974;54.444;18.560;2022-12-18T06:57:05;103060.63;;;1.47;54.62
28797;BME280;24974;54.444;18.560;2022-12-18T06:59:36;103060.69;;;1.68;54.07
28797;BME280;24974;54.444;18.560;2022-12-18T07:02:11;103068.53;;;1.63;54.74
28797;BME280;24974;54.444;18.560;2022-12-18T07:04:42;103070.31;;;1.05;55.68
28797;BME280;24974;54.444;18.560;2022-12-18T07:07:13;103069.22;;;1.36;55.30
28797;BME280;24974;54.444;18.560;2022-12-18T07:09:44;103079.66;;;1.03;55.56
28797;BME280;24974;54.444;18.560;2022-12-18T07:12:14;103075.34;;;0.79;56.43
28797;BME280;24974;54.444;18.560;2022-12-18T07:14:45;103089.44;;;1.19;55.25
28797;BME280;24974;54.444;18.560;2022-12-18T07:17:16;103094.13;;;0.66;56.58
28797;BME280;24974;54.444;18.560;2022-12-18T07:19:47;103093.56;;;0.85;56.20
28797;BME280;24974;54.444;18.560;2022-12-18T07:22:18;103093.66;;;1.21;55.60
28797;BME280;24974;54.444;18.560;2022-12-18T07:24:49;103091.56;;;0.64;56.67
28797;BME280;24974;54.444;18.560;2022-12-18T07:27:19;103093.09;;;0.67;57.17
28797;BME280;24974;54.444;18.560;2022-12-18T07:29:50;103096.19;;;1.23;55.41
28797;BME280;24974;54.444;18.560;2022-12-18T07:32:21;103094.28;;;0.49;56.50
28797;BME280;24974;54.444;18.560;2022-12-18T07:34:52;103092.97;;;0.60;57.12
28797;BME280;24974;54.444;18.560;2022-12-18T07:37:23;103099.88;;;0.63;56.61
28797;BME280;24974;54.444;18.560;2022-12-18T07:39:54;103108.69;;;0.94;56.41
28797;BME280;24974;54.444;18.560;2022-12-18T07:42:25;103114.31;;;0.55;57.21
28797;BME280;24974;54.444;18.560;2022-12-18T07:45:02;103123.47;;;0.54;57.05
28797;BME280;24974;54.444;18.560;2022-12-18T07:47:36;103128.78;;;0.47;57.59
28797;BME280;24974;54.444;18.560;2022-12-18T07:50:07;103133.25;;;0.40;57.15
28797;BME280;24974;54.444;18.560;2022-12-18T07:52:38;103138.59;;;0.48;56.58
28797;BME280;24974;54.444;18.560;2022-12-18T07:55:09;103131.66;;;0.46;56.55
28797;BME280;24974;54.444;18.560;2022-12-18T07:57:40;103113.53;;;0.84;55.85
28797;BME280;24974;54.444;18.560;2022-12-18T08:00:11;103113.50;;;0.54;56.85
28797;BME280;24974;54.444;18.560;2022-12-18T08:02:45;103112.97;;;0.74;55.97
28797;BME280;24974;54.444;18.560;2022-12-18T08:05:16;103131.06;;;0.59;55.81
28797;BME280;24974;54.444;18.560;2022-12-18T08:07:47;103125.09;;;0.78;56.34
28797;BME280;24974;54.444;18.560;2022-12-18T08:10:19;103133.03;;;0.65;56.02
28797;BME280;24974;54.444;18.560;2022-12-18T08:12:51;103132.25;;;0.56;56.46
28797;BME280;24974;54.444;18.560;2022-12-18T08:15:22;103138.34;;;0.58;57.32
28797;BME280;24974;54.444;18.560;2022-12-18T08:17:56;103143.28;;;0.32;57.00
28797;BME280;24974;54.444;18.560;2022-12-18T08:20:27;103138.16;;;0.37;56.56
28797;BME280;24974;54.444;18.560;2022-12-18T08:22:58;103151.81;;;0.43;56.63
28797;BME280;24974;54.444;18.560;2022-12-18T08:25:29;103143.38;;;0.38;57.37
28797;BME280;24974;54.444;18.560;2022-12-18T08:28:00;103139.94;;;0.67;56.34
28797;BME280;24974;54.444;18.560;2022-12-18T08:30:31;103156.19;;;0.44;56.45
28797;BME280;24974;54.444;18.560;2022-12-18T08:33:03;103138.59;;;0.48;57.30
28797;BME280;24974;54.444;18.560;2022-12-18T08:35:36;103145.13;;;0.54;56.19
28797;BME280;24974;54.444;18.560;2022-12-18T08:38:07;103140.53;;;0.54;56.08
28797;BME280;24974;54.444;18.560;2022-12-18T08:40:38;103141.22;;;0.71;56.18
28797;BME280;24974;54.444;18.560;2022-12-18T08:43:10;103146.78;;;0.40;56.57
28797;BME280;24974;54.444;18.560;2022-12-18T08:45:59;103148.19;;;0.89;55.38
28797;BME280;24974;54.444;18.560;2022-12-18T08:48:30;103151.66;;;0.97;55.59
28797;BME280;24974;54.444;18.560;2022-12-18T08:51:01;103165.84;;;0.62;56.35
28797;BME280;24974;54.444;18.560;2022-12-18T08:53:32;103155.81;;;0.33;56.73
28797;BME280;24974;54.444;18.560;2022-12-18T08:56:03;103155.47;;;0.50;56.77
28797;BME280;24974;54.444;18.560;2022-12-18T08:58:34;103155.59;;;0.72;55.59
28797;BME280;24974;54.444;18.560;2022-12-18T09:01:08;103148.13;;;0.59;55.93
28797;BME280;24974;54.444;18.560;2022-12-18T09:03:42;103152.81;;;0.65;56.60
28797;BME280;24974;54.444;18.560;2022-12-18T09:06:20;103168.13;;;0.73;56.16
28797;BME280;24974;54.444;18.560;2022-12-18T09:08:51;103176.09;;;0.89;54.90
28797;BME280;24974;54.444;18.560;2022-12-18T09:11:25;103178.69;;;0.82;55.87
28797;BME280;24974;54.444;18.560;2022-12-18T09:13:57;103181.00;;;1.23;54.45
28797;BME280;24974;54.444;18.560;2022-12-18T09:16:29;103175.09;;;1.20;54.51
28797;BME280;24974;54.444;18.560;2022-12-18T09:19:02;103171.41;;;0.83;55.72
28797;BME280;24974;54.444;18.560;2022-12-18T09:21:37;103172.13;;;1.29;54.64
28797;BME280;24974;54.444;18.560;2022-12-18T09:24:12;103176.69;;;1.44;53.80
28797;BME280;24974;54.444;18.560;2022-12-18T09:26:44;103174.69;;;1.67;52.97
28797;BME280;24974;54.444;18.560;2022-12-18T09:29:15;103176.28;;;1.02;54.53
28797;BME280;24974;54.444;18.560;2022-12-18T09:31:47;103187.88;;;1.70;53.22
28797;BME280;24974;54.444;18.560;2022-12-18T09:34:18;103180.25;;;1.95;51.79
28797;BME280;24974;54.444;18.560;2022-12-18T09:36:51;103181.66;;;1.91;52.68
28797;BME280;24974;54.444;18.560;2022-12-18T09:39:22;103173.78;;;1.16;54.09
28797;BME280;24974;54.444;18.560;2022-12-18T09:41:56;103181.63;;;1.25;53.96
28797;BME280;24974;54.444;18.560;2022-12-18T09:44:36;103192.81;;;1.81;51.84
28797;BME280;24974;54.444;18.560;2022-12-18T09:47:15;103189.38;;;1.73;52.33
28797;BME280;24974;54.444;18.560;2022-12-18T09:49:50;103180.88;;;1.61;51.66
28797;BME280;24974;54.444;18.560;2022-12-18T09:52:27;103180.34;;;2.02;51.54
28797;BME280;24974;54.444;18.560;2022-12-18T09:55:25;103192.00;;;2.17;50.09
28797;BME280;24974;54.444;18.560;2022-12-18T09:58:24;103188.84;;;1.99;51.04
28797;BME280;24974;54.444;18.560;2022-12-18T10:00:57;103182.47;;;1.70;51.17
28797;BME280;24974;54.444;18.560;2022-12-18T10:03:29;103192.00;;;1.51;51.74
28797;BME280;24974;54.444;18.560;2022-12-18T10:06:20;103179.28;;;1.66;51.07
28797;BME280;24974;54.444;18.560;2022-12-18T10:09:27;103179.28;;;1.66;51.64
28797;BME280;24974;54.444;18.560;2022-12-18T10:20:34;103197.88;;;1.70;50.65
28797;BME280;24974;54.444;18.560;2022-12-18T10:23:27;103192.78;;;1.45;51.73
28797;BME280;24974;54.444;18.560;2022-12-18T10:26:08;103210.94;;;1.81;50.72
28797;BME280;24974;54.444;18.560;2022-12-18T10:28:41;103203.41;;;1.61;51.15
28797;BME280;24974;54.444;18.560;2022-12-18T10:31:24;103207.41;;;1.51;51.59
28797;BME280;24974;54.444;18.560;2022-12-18T10:33:55;103191.75;;;1.97;49.63
28797;BME280;24974;54.444;18.560;2022-12-18T10:36:26;103185.19;;;1.55;50.38
28797;BME280;24974;54.444;18.560;2022-12-18T10:39:17;103188.53;;;1.43;50.60
28797;BME280;24974;54.444;18.560;2022-12-18T10:41:49;103185.28;;;1.98;49.74
28797;BME280;24974;54.444;18.560;2022-12-18T10:44:23;103200.66;;;1.76;50.45
28797;BME280;24974;54.444;18.560;2022-12-18T10:47:03;103202.13;;;2.30;49.42
28797;BME280;24974;54.444;18.560;2022-12-18T10:49:35;103204.06;;;2.00;49.33
28797;BME280;24974;54.444;18.560;2022-12-18T10:52:14;103199.34;;;2.23;48.74
28797;BME280;24974;54.444;18.560;2022-12-18T10:54:48;103199.22;;;2.52;48.60
28797;BME280;24974;54.444;18.560;2022-12-18T10:59:58;103199.16;;;2.67;47.63
28797;BME280;24974;54.444;18.560;2022-12-18T11:02:37;103207.19;;;1.96;48.98
28797;BME280;24974;54.444;18.560;2022-12-18T11:05:27;103211.16;;;1.64;50.18
28797;BME280;24974;54.444;18.560;2022-12-18T11:07:59;103210.97;;;2.17;48.95
28797;BME280;24974;54.444;18.560;2022-12-18T11:10:36;103216.16;;;2.33;48.95
28797;BME280;24974;54.444;18.560;2022-12-18T11:13:27;103207.09;;;2.47;48.11
28797;BME280;24974;54.444;18.560;2022-12-18T11:15:59;103197.13;;;2.76;47.70
28797;BME280;24974;54.444;18.560;2022-12-18T11:18:34;103191.44;;;3.27;45.91
28797;BME280;24974;54.444;18.560;2022-12-18T11:21:10;103199.00;;;3.66;45.60
28797;BME280;24974;54.444;18.560;2022-12-18T11:23:54;103211.97;;;3.01;46.37
28797;BME280;24974;54.444;18.560;2022-12-18T11:26:34;103192.28;;;3.62;44.99
28797;BME280;24974;54.444;18.560;2022-12-18T11:29:15;103207.84;;;3.05;46.67
28797;BME280;24974;54.444;18.560;2022-12-18T11:31:47;103209.16;;;2.24;47.71
28797;BME280;24974;54.444;18.560;2022-12-18T11:34:31;103196.56;;;3.43;45.61
28797;BME280;24974;54.444;18.560;2022-12-18T11:37:03;103202.22;;;3.42;45.05
28797;BME280;24974;54.444;18.560;2022-12-18T11:39:41;103219.47;;;3.27;45.59
28797;BME280;24974;54.444;18.560;2022-12-18T11:42:25;103219.03;;;4.06;44.70
28797;BME280;24974;54.444;18.560;2022-12-18T11:45:18;103218.91;;;4.41;43.33
28797;BME280;24974;54.444;18.560;2022-12-18T11:47:57;103218.97;;;4.61;42.52
28797;BME280;24974;54.444;18.560;2022-12-18T11:53:09;103228.63;;;4.83;42.38
28797;BME280;24974;54.444;18.560;2022-12-18T11:58:51;103232.78;;;5.12;42.38
28797;BME280;24974;54.444;18.560;2022-12-18T12:01:48;103228.41;;;4.91;42.50
28797;BME280;24974;54.444;18.560;2022-12-18T12:04:33;103232.16;;;4.70;42.34
28797;BME280;24974;54.444;18.560;2022-12-18T12:23:59;103226.56;;;6.34;38.96
28797;BME280;24974;54.444;18.560;2022-12-18T12:29:18;103212.56;;;7.31;37.25
28797;BME280;24974;54.444;18.560;2022-12-18T12:32:04;103204.50;;;7.91;36.95
28797;BME280;24974;54.444;18.560;2022-12-18T12:40:25;103192.03;;;6.47;37.89
28797;BME280;24974;54.444;18.560;2022-12-18T12:43:01;103190.50;;;6.82;37.61
28797;BME280;24974;54.444;18.560;2022-12-18T12:45:51;103210.09;;;6.09;38.51
28797;BME280;24974;54.444;18.560;2022-12-18T12:48:43;103202.38;;;6.94;37.51
28797;BME280;24974;54.444;18.560;2022-12-18T12:51:22;103201.19;;;7.09;36.67
28797;BME280;24974;54.444;18.560;2022-12-18T12:53:56;103207.03;;;6.62;37.62
28797;BME280;24974;54.444;18.560;2022-12-18T12:56:38;103204.19;;;6.19;38.15
28797;BME280;24974;54.444;18.560;2022-12-18T13:08:02;103196.09;;;5.93;39.13
28797;BME280;24974;54.444;18.560;2022-12-18T13:10:43;103199.47;;;5.03;39.86
28797;BME280;24974;54.444;18.560;2022-12-18T13:13:15;103202.59;;;6.36;38.62
28797;BME280;24974;54.444;18.560;2022-12-18T13:15:48;103198.84;;;5.01;41.17
28797;BME280;24974;54.444;18.560;2022-12-18T13:18:22;103204.69;;;5.05;40.93
28797;BME280;24974;54.444;18.560;2022-12-18T13:26:00;103199.88;;;2.33;47.69
28797;BME280;24974;54.444;18.560;2022-12-18T13:28:55;103207.75;;;3.27;46.60
28797;BME280;24974;54.444;18.560;2022-12-18T13:36:54;103217.19;;;2.53;48.47
28797;BME280;24974;54.444;18.560;2022-12-18T13:39:32;103220.13;;;1.65;50.79
28797;BME280;24974;54.444;18.560;2022-12-18T13:44:40;103230.84;;;1.88;50.42
28797;BME280;24974;54.444;18.560;2022-12-18T13:47:33;103220.59;;;2.19;49.37
28797;BME280;24974;54.444;18.560;2022-12-18T13:50:24;103229.59;;;1.54;51.24
28797;BME280;24974;54.444;18.560;2022-12-18T13:52:55;103228.06;;;1.66;51.38
28797;BME280;24974;54.444;18.560;2022-12-18T13:55:26;103224.63;;;1.58;51.64
28797;BME280;24974;54.444;18.560;2022-12-18T13:58:06;103216.03;;;1.54;51.70
28797;BME280;24974;54.444;18.560;2022-12-18T14:00:42;103213.31;;;1.39;51.37
28797;BME280;24974;54.444;18.560;2022-12-18T14:03:22;103220.75;;;2.33;49.98
28797;BME280;24974;54.444;18.560;2022-12-18T14:06:05;103216.09;;;1.76;51.02
28797;BME280;24974;54.444;18.560;2022-12-18T14:08:43;103230.97;;;1.50;51.53
28797;BME280;24974;54.444;18.560;2022-12-18T14:11:20;103226.50;;;1.57;51.83
28797;BME280;24974;54.444;18.560;2022-12-18T14:13:52;103214.06;;;1.33;52.12
28797;BME280;24974;54.444;18.560;2022-12-18T14:16:23;103218.44;;;1.34;52.43
28797;BME280;24974;54.444;18.560;2022-12-18T14:18:56;103212.00;;;1.35;51.55
28797;BME280;24974;54.444;18.560;2022-12-18T14:21:29;103206.03;;;1.40;52.05
28797;BME280;24974;54.444;18.560;2022-12-18T14:24:18;103212.53;;;1.01;52.27
28797;BME280;24974;54.444;18.560;2022-12-18T14:26:50;103200.38;;;1.12;52.89
28797;BME280;24974;54.444;18.560;2022-12-18T14:29:29;103201.44;;;1.26;52.11
28797;BME280;24974;54.444;18.560;2022-12-18T14:32:10;103206.03;;;1.70;51.28
28797;BME280;24974;54.444;18.560;2022-12-18T14:34:42;103213.22;;;1.33;52.10
28797;BME280;24974;54.444;18.560;2022-12-18T14:37:14;103220.03;;;1.44;51.20
28797;BME280;24974;54.444;18.560;2022-12-18T14:39:53;103218.97;;;1.00;52.13
28797;BME280;24974;54.444;18.560;2022-12-18T14:42:28;103213.69;;;1.22;51.83
28797;BME280;24974;54.444;18.560;2022-12-18T14:45:39;103230.81;;;0.99;52.25
28797;BME280;24974;54.444;18.560;2022-12-18T14:48:19;103222.28;;;0.73;52.78
28797;BME280;24974;54.444;18.560;2022-12-18T14:51:26;103231.50;;;0.78;52.92
28797;BME280;24974;54.444;18.560;2022-12-18T14:54:00;103223.94;;;0.74;53.16
28797;BME280;24974;54.444;18.560;2022-12-18T14:56:34;103236.88;;;0.64;53.04
28797;BME280;24974;54.444;18.560;2022-12-18T14:59:13;103225.56;;;0.83;53.18
28797;BME280;24974;54.444;18.560;2022-12-18T15:04:46;103234.72;;;0.36;53.78
28797;BME280;24974;54.444;18.560;2022-12-18T15:07:22;103229.50;;;0.95;52.58
28797;BME280;24974;54.444;18.560;2022-12-18T15:20:48;103227.84;;;0.25;53.18
28797;BME280;24974;54.444;18.560;2022-12-18T15:23:32;103229.91;;;-0.08;54.89
28797;BME280;24974;54.444;18.560;2022-12-18T15:26:09;103225.16;;;-0.06;54.14
28797;BME280;24974;54.444;18.560;2022-12-18T15:28:47;103237.28;;;-0.02;53.94
28797;BME280;24974;54.444;18.560;2022-12-18T15:31:30;103250.19;;;0.19;53.47
28797;BME280;24974;54.444;18.560;2022-12-18T15:34:13;103240.69;;;0.23;54.25
28797;BME280;24974;54.444;18.560;2022-12-18T15:36:44;103252.25;;;0.17;53.67
28797;BME280;24974;54.444;18.560;2022-12-18T15:39:15;103242.44;;;-0.15;54.33
28797;BME280;24974;54.444;18.560;2022-12-18T15:41:46;103245.72;;;-0.36;55.03
28797;BME280;24974;54.444;18.560;2022-12-18T15:44:36;103238.97;;;-0.32;54.75
28797;BME280;24974;54.444;18.560;2022-12-18T15:47:10;103246.75;;;0.03;53.68
28797;BME280;24974;54.444;18.560;2022-12-18T15:49:42;103251.63;;;-0.32;54.88
28797;BME280;24974;54.444;18.560;2022-12-18T15:52:13;103256.84;;;0.09;53.88
28797;BME280;24974;54.444;18.560;2022-12-18T15:54:44;103284.03;;;-0.24;54.58
28797;BME280;24974;54.444;18.560;2022-12-18T15:57:33;103237.06;;;-0.23;54.35
28797;BME280;24974;54.444;18.560;2022-12-18T16:00:04;103226.59;;;-0.26;53.88
28797;BME280;24974;54.444;18.560;2022-12-18T16:02:36;103215.09;;;-0.20;53.95
28797;BME280;24974;54.444;18.560;2022-12-18T16:05:14;103229.75;;;-0.14;53.23
28797;BME280;24974;54.444;18.560;2022-12-18T16:07:47;103225.31;;;-0.46;54.09
28797;BME280;24974;54.444;18.560;2022-12-18T16:10:18;103224.06;;;-0.28;53.29
28797;BME280;24974;54.444;18.560;2022-12-18T16:12:49;103232.34;;;-0.29;52.82
28797;BME280;24974;54.444;18.560;2022-12-18T16:15:20;103249.66;;;-0.46;52.83
28797;BME280;24974;54.444;18.560;2022-12-18T16:17:51;103243.59;;;-0.17;53.06
28797;BME280;24974;54.444;18.560;2022-12-18T16:20:22;103234.97;;;-0.60;53.46
28797;BME280;24974;54.444;18.560;2022-12-18T16:22:53;103257.44;;;-0.68;53.53
28797;BME280;24974;54.444;18.560;2022-12-18T16:25:26;103248.97;;;-0.57;52.96
28797;BME280;24974;54.444;18.560;2022-12-18T16:27:57;103241.47;;;-1.10;54.01
28797;BME280;24974;54.444;18.560;2022-12-18T16:30:30;103239.69;;;-0.54;52.56
28797;BME280;24974;54.444;18.560;2022-12-18T16:33:01;103246.50;;;-0.91;53.57
28797;BME280;24974;54.444;18.560;2022-12-18T16:35:32;103234.84;;;-0.75;53.33
28797;BME280;24974;54.444;18.560;2022-12-18T16:38:03;103231.66;;;-0.78;53.56
28797;BME280;24974;54.444;18.560;2022-12-18T16:40:33;103244.66;;;-0.98;54.10
28797;BME280;24974;54.444;18.560;2022-12-18T16:43:24;103211.44;;;-0.99;53.73
28797;BME280;24974;54.444;18.560;2022-12-18T16:45:55;103213.13;;;-1.06;53.78
28797;BME280;24974;54.444;18.560;2022-12-18T16:48:27;103216.00;;;-1.32;54.08
28797;BME280;24974;54.444;18.560;2022-12-18T16:51:01;103201.44;;;-0.82;53.33
28797;BME280;24974;54.444;18.560;2022-12-18T16:53:32;103244.19;;;-1.18;54.13
28797;BME280;24974;54.444;18.560;2022-12-18T16:56:03;103193.09;;;-1.11;53.74
28797;BME280;24974;54.444;18.560;2022-12-18T16:58:34;103202.16;;;-1.21;54.16
28797;BME280;24974;54.444;18.560;2022-12-18T17:01:07;103208.75;;;-1.23;54.06
28797;BME280;24974;54.444;18.560;2022-12-18T17:03:39;103197.28;;;-1.01;54.00
28797;BME280;24974;54.444;18.560;2022-12-18T17:06:10;103176.72;;;-1.10;54.40
28797;BME280;24974;54.444;18.560;2022-12-18T17:08:40;103192.34;;;-0.89;54.62
28797;BME280;24974;54.444;18.560;2022-12-18T17:11:11;103183.69;;;-0.68;52.36
28797;BME280;24974;54.444;18.560;2022-12-18T17:13:42;103193.03;;;-0.87;53.32
28797;BME280;24974;54.444;18.560;2022-12-18T17:16:13;103191.53;;;-1.06;53.80
28797;BME280;24974;54.444;18.560;2022-12-18T17:18:45;103175.91;;;-1.27;54.90
28797;BME280;24974;54.444;18.560;2022-12-18T17:21:16;103171.84;;;-1.55;54.62
28797;BME280;24974;54.444;18.560;2022-12-18T17:23:47;103217.03;;;-1.49;54.70
28797;BME280;24974;54.444;18.560;2022-12-18T17:26:18;103178.25;;;-1.48;55.32
28797;BME280;24974;54.444;18.560;2022-12-18T17:28:48;103183.66;;;-1.56;55.28
28797;BME280;24974;54.444;18.560;2022-12-18T17:31:21;103193.06;;;-1.77;55.78
28797;BME280;24974;54.444;18.560;2022-12-18T17:33:53;103195.94;;;-1.62;55.20
28797;BME280;24974;54.444;18.560;2022-12-18T17:36:25;103202.88;;;-1.43;55.17
28797;BME280;24974;54.444;18.560;2022-12-18T17:39:01;103205.53;;;-1.84;55.05
28797;BME280;24974;54.444;18.560;2022-12-18T17:41:33;103215.63;;;-1.86;55.45
28797;BME280;24974;54.444;18.560;2022-12-18T17:44:05;103216.34;;;-1.67;55.88
28797;BME280;24974;54.444;18.560;2022-12-18T17:46:36;103206.81;;;-2.04;56.21
28797;BME280;24974;54.444;18.560;2022-12-18T17:49:06;103197.44;;;-1.92;56.06
28797;BME280;24974;54.444;18.560;2022-12-18T17:51:37;103201.09;;;-2.01;56.17
28797;BME280;24974;54.444;18.560;2022-12-18T17:54:10;103235.38;;;-2.19;55.75
28797;BME280;24974;54.444;18.560;2022-12-18T17:56:41;103189.13;;;-2.07;56.16
28797;BME280;24974;54.444;18.560;2022-12-18T17:59:12;103193.22;;;-1.86;55.21
28797;BME280;24974;54.444;18.560;2022-12-18T18:01:43;103233.72;;;-2.12;55.81
28797;BME280;24974;54.444;18.560;2022-12-18T18:04:14;103216.88;;;-2.22;56.10
28797;BME280;24974;54.444;18.560;2022-12-18T18:06:45;103214.69;;;-2.19;55.74
28797;BME280;24974;54.444;18.560;2022-12-18T18:09:16;103209.72;;;-2.40;56.81
28797;BME280;24974;54.444;18.560;2022-12-18T18:11:47;103210.53;;;-2.47;56.09
28797;BME280;24974;54.444;18.560;2022-12-18T18:14:36;103217.69;;;-2.64;56.56
28797;BME280;24974;54.444;18.560;2022-12-18T18:17:07;103212.94;;;-2.36;nan
28797;BME280;24974;54.444;18.560;2022-12-18T18:19:38;103224.38;;;-2.34;55.69
28797;BME280;24974;54.444;18.560;2022-12-18T18:22:09;103231.06;;;-2.80;56.78
28797;BME280;24974;54.444;18.560;2022-12-18T18:24:40;103228.03;;;-2.77;56.88
28797;BME280;24974;54.444;18.560;2022-12-18T18:27:13;103216.03;;;-2.57;55.89
28797;BME280;24974;54.444;18.560;2022-12-18T18:29:44;103239.63;;;-2.51;56.34
28797;BME280;24974;54.444;18.560;2022-12-18T18:32:15;103206.41;;;-2.94;57.10
28797;BME280;24974;54.444;18.560;2022-12-18T18:34:46;103202.84;;;-2.68;56.51
28797;BME280;24974;54.444;18.560;2022-12-18T18:37:17;103201.63;;;-2.74;57.18
28797;BME280;24974;54.444;18.560;2022-12-18T18:39:48;103210.16;;;-2.53;56.18
28797;BME280;24974;54.444;18.560;2022-12-18T18:42:19;103211.34;;;-3.07;57.11
28797;BME280;24974;54.444;18.560;2022-12-18T18:44:49;103207.66;;;-3.06;57.23
28797;BME280;24974;54.444;18.560;2022-12-18T18:47:20;103204.09;;;-2.89;57.10
28797;BME280;24974;54.444;18.560;2022-12-18T18:49:51;103205.28;;;-3.09;57.52
28797;BME280;24974;54.444;18.560;2022-12-18T18:52:22;103203.72;;;-2.94;56.99
28797;BME280;24974;54.444;18.560;2022-12-18T18:54:53;103209.44;;;-3.15;57.59
28797;BME280;24974;54.444;18.560;2022-12-18T18:57:24;103243.66;;;-3.25;57.66
28797;BME280;24974;54.444;18.560;2022-12-18T18:59:54;103236.16;;;-2.95;56.98
28797;BME280;24974;54.444;18.560;2022-12-18T19:02:25;103232.53;;;-3.12;57.54
28797;BME280;24974;54.444;18.560;2022-12-18T19:04:56;103269.47;;;-3.32;57.53
28797;BME280;24974;54.444;18.560;2022-12-18T19:07:27;103239.75;;;-3.13;57.14
28797;BME280;24974;54.444;18.560;2022-12-18T19:09:58;103226.28;;;-3.13;57.94
28797;BME280;24974;54.444;18.560;2022-12-18T19:12:29;103235.69;;;-3.34;57.90
28797;BME280;24974;54.444;18.560;2022-12-18T19:15:18;103226.63;;;-3.33;58.30
28797;BME280;24974;54.444;18.560;2022-12-18T19:17:49;103246.22;;;-3.77;59.38
28797;BME280;24974;54.444;18.560;2022-12-18T19:20:20;103233.53;;;-3.49;58.68
28797;BME280;24974;54.444;18.560;2022-12-18T19:22:54;103259.88;;;-3.70;58.96
28797;BME280;24974;54.444;18.560;2022-12-18T19:25:25;103263.25;;;-3.32;58.71